createdAt,value
2023-05-10T00:05:00.073Z,12.20
2023-05-10T00:10:06.011Z,11.40
2023-05-10T00:15:11.168Z,11.50
2023-05-10T00:20:16.090Z,14.80
2023-05-10T00:25:20.385Z,13.00
2023-05-10T00:30:25.023Z,9.70
2023-05-10T00:35:29.316Z,15.20
2023-05-10T00:40:33.516Z,11.10
2023-05-10T00:45:42.920Z,11.00
2023-05-10T00:50:47.619Z,11.00
2023-05-10T00:55:52.781Z,10.00
2023-05-10T01:01:00.289Z,10.60
2023-05-10T01:06:04.817Z,10.80
2023-05-10T01:11:09.064Z,13.50
2023-05-10T01:16:13.593Z,11.10
2023-05-10T01:22:01.976Z,10.60
2023-05-10T01:27:35.056Z,8.90
2023-05-10T01:32:42.143Z,8.10
2023-05-10T01:38:05.938Z,11.40
2023-05-10T01:43:17.864Z,9.00
2023-05-10T01:48:23.612Z,8.10
2023-05-10T01:53:29.382Z,8.80
2023-05-10T01:58:36.703Z,7.60
2023-05-10T02:03:44.180Z,9.10
2023-05-10T02:08:50.540Z,7.70
2023-05-10T02:13:56.526Z,7.40
2023-05-10T02:19:05.847Z,8.00
2023-05-10T02:24:11.089Z,8.30
2023-05-10T02:29:17.275Z,7.60
2023-05-10T02:34:24.491Z,7.20
2023-05-10T02:39:31.980Z,6.90
2023-05-10T02:44:38.577Z,8.40
2023-05-10T02:49:43.304Z,7.10
2023-05-10T02:54:52.272Z,7.60
2023-05-10T02:59:56.812Z,7.10
2023-05-10T03:05:01.804Z,6.40
2023-05-10T03:10:07.244Z,7.70
2023-05-10T03:15:34.811Z,6.20
2023-05-10T03:20:50.407Z,6.30
2023-05-10T03:25:54.838Z,7.80
2023-05-10T03:31:00.334Z,7.30
2023-05-10T03:36:05.271Z,6.70
2023-05-10T03:41:09.483Z,9.00
2023-05-10T03:46:13.631Z,6.50
2023-05-10T03:51:18.285Z,6.20
2023-05-10T03:56:22.523Z,6.50
2023-05-10T04:01:27.152Z,7.70
2023-05-10T04:06:32.181Z,6.60
2023-05-10T04:11:36.457Z,6.20
2023-05-10T04:16:40.728Z,8.70
2023-05-10T04:21:44.825Z,6.00
2023-05-10T04:26:48.975Z,6.20
2023-05-10T04:31:53.302Z,6.90
2023-05-10T04:36:57.852Z,5.60
2023-05-10T04:42:04.314Z,5.10
2023-05-10T04:47:09.872Z,5.30
2023-05-10T04:52:16.594Z,5.50
2023-05-10T04:57:20.836Z,4.90
2023-05-10T05:02:25.130Z,4.40
2023-05-10T05:07:29.512Z,5.00
2023-05-10T05:12:33.656Z,5.10
2023-05-10T05:17:38.343Z,5.30
2023-05-10T05:22:42.525Z,5.00
2023-05-10T05:27:46.869Z,5.40
2023-05-10T05:32:51.045Z,4.10
2023-05-10T05:37:55.143Z,5.20
2023-05-10T05:42:59.582Z,5.40
2023-05-10T05:48:04.509Z,3.90
2023-05-10T05:53:08.571Z,7.20
2023-05-10T05:58:12.716Z,5.50
2023-05-10T06:03:17.134Z,5.30
2023-05-10T06:08:21.900Z,4.50
2023-05-10T06:13:33.842Z,7.80
2023-05-10T06:18:38.354Z,6.40
2023-05-10T06:23:42.397Z,7.80
2023-05-10T06:34:15.112Z,6.40
2023-05-10T06:39:19.654Z,11.60
2023-05-10T06:44:23.732Z,6.60
2023-05-10T06:49:29.155Z,68.50
2023-05-10T06:54:33.086Z,76.50
2023-05-10T06:59:38.042Z,62.90
2023-05-10T07:04:42.312Z,54.00
2023-05-10T07:09:46.893Z,44.90
2023-05-10T07:14:51.101Z,35.00
2023-05-10T07:19:55.407Z,39.40
2023-05-10T07:24:59.972Z,39.90
2023-05-10T07:30:04.401Z,33.30
2023-05-10T07:35:09.035Z,26.70
2023-05-10T07:40:13.065Z,34.40
2023-05-10T07:45:17.251Z,28.20
2023-05-10T07:50:22.591Z,32.20
2023-05-10T07:55:27.553Z,30.90
2023-05-10T08:00:33.099Z,34.80
2023-05-10T08:05:37.024Z,25.90
2023-05-10T08:10:41.173Z,35.60
2023-05-10T08:15:45.326Z,29.80
2023-05-10T08:20:49.608Z,31.70
2023-05-10T08:25:54.066Z,28.50
2023-05-10T08:30:58.431Z,31.10
2023-05-10T08:36:02.442Z,27.10
2023-05-10T08:41:07.420Z,27.50
2023-05-10T08:46:12.551Z,28.10
2023-05-10T08:51:23.303Z,24.80
2023-05-10T08:56:29.010Z,32.60
2023-05-10T09:01:34.277Z,26.90
2023-05-10T09:06:38.771Z,27.10
2023-05-10T09:11:42.836Z,24.00
2023-05-10T09:16:48.153Z,27.10
2023-05-10T09:21:52.132Z,26.10
2023-05-10T09:26:58.964Z,22.20
2023-05-10T09:32:03.280Z,24.30
2023-05-10T09:37:08.240Z,20.60
2023-05-10T09:42:12.364Z,17.40
2023-05-10T09:47:22.862Z,18.30
2023-05-10T09:52:26.968Z,17.00
2023-05-10T09:57:32.849Z,16.60
2023-05-10T10:02:39.664Z,16.40
2023-05-10T10:07:44.032Z,16.80
2023-05-10T10:12:48.232Z,17.40
2023-05-10T10:17:53.873Z,13.90
2023-05-10T10:22:58.038Z,15.00
2023-05-10T10:28:27.557Z,13.50
2023-05-10T10:33:38.060Z,15.40
2023-05-10T10:38:48.466Z,15.40
2023-05-10T10:44:27.705Z,15.30
2023-05-10T10:49:41.220Z,13.30
2023-05-10T10:54:58.537Z,11.90
2023-05-10T11:00:34.992Z,19.30
2023-05-10T11:05:49.905Z,13.10
2023-05-10T11:11:00.181Z,12.70
2023-05-10T11:16:25.306Z,12.30
2023-05-10T11:21:31.597Z,13.50
2023-05-10T11:26:37.081Z,15.30
2023-05-10T11:31:46.501Z,10.70
2023-05-10T11:36:55.172Z,12.00
2023-05-10T11:42:00.178Z,10.30
2023-05-10T11:47:04.956Z,11.20
2023-05-10T11:52:10.203Z,14.10
2023-05-10T11:57:14.299Z,11.30
2023-05-10T12:02:18.586Z,11.10
2023-05-10T12:07:22.677Z,10.40
2023-05-10T12:12:26.802Z,12.10
2023-05-10T12:17:31.285Z,13.10
2023-05-10T12:22:36.308Z,9.60
2023-05-10T12:27:40.462Z,10.20
2023-05-10T12:32:45.439Z,9.30
2023-05-10T12:37:49.648Z,13.60
2023-05-10T12:42:54.116Z,8.90
2023-05-10T12:47:58.368Z,8.70
2023-05-10T12:53:02.352Z,8.90
2023-05-10T12:58:06.340Z,12.10
2023-05-10T13:03:11.458Z,8.00
2023-05-10T13:08:15.714Z,6.40
2023-05-10T13:13:19.827Z,9.30
2023-05-10T13:18:23.986Z,6.60
2023-05-10T13:23:27.993Z,6.30
2023-05-10T13:28:32.332Z,6.60
2023-05-10T13:33:36.249Z,5.70
2023-05-10T13:38:40.191Z,7.70
2023-05-10T13:43:44.417Z,6.80
2023-05-10T13:48:48.547Z,7.10
2023-05-10T13:53:53.312Z,7.90
2023-05-10T13:59:00.771Z,6.60
2023-05-10T14:04:04.903Z,8.80
2023-05-10T14:09:10.172Z,6.90
2023-05-10T14:14:14.764Z,5.60
2023-05-10T14:19:18.887Z,4.80
2023-05-10T14:24:22.920Z,4.30
2023-05-10T14:29:26.953Z,6.50
2023-05-10T14:34:31.819Z,6.40
2023-05-10T14:39:36.564Z,6.40
2023-05-10T14:44:40.999Z,4.50
2023-05-10T14:49:44.829Z,4.50
2023-05-10T14:54:48.973Z,8.90
2023-05-10T14:59:52.791Z,3.50
2023-05-10T15:04:58.784Z,5.30
2023-05-10T15:10:03.816Z,5.10
2023-05-10T15:15:08.777Z,6.60
2023-05-10T15:20:13.223Z,11.80
2023-05-10T15:25:17.508Z,5.50
2023-05-10T15:30:22.070Z,5.70
2023-05-10T15:35:27.888Z,4.30
2023-05-10T15:40:34.884Z,8.00
2023-05-10T15:45:39.920Z,7.50
2023-05-10T15:50:43.755Z,8.70
2023-05-10T15:55:47.803Z,6.30
2023-05-10T16:00:51.874Z,7.70
2023-05-10T16:05:56.168Z,8.90
2023-05-10T16:11:01.128Z,4.60
2023-05-10T16:16:05.711Z,10.70
2023-05-10T16:21:09.708Z,2.70
2023-05-10T16:26:14.356Z,4.20
2023-05-10T16:31:22.538Z,7.00
2023-05-10T16:36:27.491Z,9.80
2023-05-10T16:42:24.469Z,9.60
2023-05-10T16:47:28.559Z,4.70
2023-05-10T16:52:33.388Z,15.00
2023-05-10T16:57:37.301Z,14.10
2023-05-10T17:02:42.241Z,11.50
2023-05-10T17:07:46.946Z,13.90
2023-05-10T17:12:51.875Z,7.70
2023-05-10T17:17:56.159Z,8.40
2023-05-10T17:23:00.941Z,5.00
2023-05-10T17:28:04.974Z,8.00
2023-05-10T17:33:08.985Z,5.50
2023-05-10T17:38:13.059Z,5.60
2023-05-10T17:43:17.175Z,6.70
2023-05-10T17:48:21.113Z,7.80
2023-05-10T17:53:25.017Z,6.90
2023-05-10T17:58:29.291Z,7.30
2023-05-10T18:03:33.467Z,5.30
2023-05-10T18:08:37.444Z,6.90
2023-05-10T18:13:42.519Z,4.80
2023-05-10T18:18:46.871Z,17.00
2023-05-10T18:23:50.768Z,19.00
2023-05-10T18:28:54.797Z,14.90
2023-05-10T18:33:59.144Z,10.50
2023-05-10T18:39:03.571Z,6.90
2023-05-10T18:44:09.634Z,13.60
2023-05-10T18:49:14.036Z,8.60
2023-05-10T18:54:18.904Z,7.80
2023-05-10T18:59:23.842Z,13.10
2023-05-10T19:04:29.127Z,7.60
2023-05-10T19:09:34.338Z,11.30
2023-05-10T19:14:39.359Z,6.40
2023-05-10T19:19:45.315Z,6.90
2023-05-10T19:24:50.316Z,4.60
2023-05-10T19:29:55.952Z,13.20
2023-05-10T19:35:00.952Z,10.10
2023-05-10T19:40:11.652Z,17.30
2023-05-10T19:45:17.619Z,28.60
2023-05-10T19:50:22.051Z,83.80
2023-05-10T19:55:31.208Z,115.50
2023-05-10T20:00:37.336Z,184.70
2023-05-10T20:05:41.804Z,122.00
2023-05-10T20:10:46.462Z,105.00
2023-05-10T20:15:50.661Z,101.90
2023-05-10T20:20:55.999Z,86.20
2023-05-10T20:26:00.130Z,83.20
2023-05-10T20:31:04.995Z,75.90
2023-05-10T20:36:13.372Z,79.50
2023-05-10T20:41:17.713Z,85.00
2023-05-10T20:46:22.078Z,74.60
2023-05-10T20:51:26.084Z,88.60
2023-05-10T20:56:30.132Z,70.80
2023-05-10T21:01:34.286Z,69.80
2023-05-10T21:06:38.402Z,70.50
2023-05-10T21:11:42.628Z,69.30
2023-05-10T21:16:46.673Z,59.40
2023-05-10T21:21:51.425Z,64.50
2023-05-10T21:26:55.556Z,66.40
2023-05-10T21:31:59.657Z,60.60
2023-05-10T21:37:03.631Z,55.80
2023-05-10T21:42:07.764Z,57.80
2023-05-10T21:47:11.582Z,59.90
2023-05-10T21:52:15.704Z,54.00
2023-05-10T21:57:21.802Z,53.20
2023-05-10T22:02:26.034Z,55.00
2023-05-10T22:07:34.205Z,56.60
2023-05-10T22:12:38.385Z,48.40
2023-05-10T22:17:42.259Z,49.50
2023-05-10T22:22:46.362Z,48.40
2023-05-10T22:27:50.498Z,44.30
2023-05-10T22:32:54.648Z,47.00
2023-05-10T22:37:58.602Z,40.50
2023-05-10T22:43:02.994Z,42.90
2023-05-10T22:48:09.658Z,41.70
2023-05-10T22:53:13.624Z,38.80
2023-05-10T22:58:18.197Z,41.10
2023-05-10T23:03:22.439Z,35.40
2023-05-10T23:08:26.858Z,37.90
2023-05-10T23:13:30.886Z,32.20
2023-05-10T23:18:34.939Z,36.00
2023-05-10T23:23:39.088Z,36.40
2023-05-10T23:28:43.301Z,31.30
2023-05-10T23:33:47.538Z,34.30
2023-05-10T23:38:51.469Z,32.00
2023-05-10T23:43:55.727Z,28.90
2023-05-10T23:48:59.824Z,36.30
2023-05-10T23:54:03.870Z,31.00
2023-05-10T23:59:07.795Z,30.30
